sensor_id;sensor_type;location;lat;lon;timestamp;pressure;altitude;pressure_sealevel;temperature;humidity
9307;BME280;4691;47.612;7.610;2023-03-01T00:01:45;99004.47;;;-1.62;100.00
9307;BME280;4691;47.612;7.610;2023-03-01T00:04:10;99001.84;;;-1.62;100.00
9307;BME280;4691;47.612;7.610;2023-03-01T00:06:36;99000.97;;;-1.61;100.00
9307;BME280;4691;47.612;7.610;2023-03-01T00:09:02;98990.59;;;-1.67;100.00
9307;BME280;4691;47.612;7.610;2023-03-01T00:11:29;98987.03;;;-1.63;100.00
9307;BME280;4691;47.612;7.610;2023-03-01T00:13:57;98988.06;;;-1.70;100.00
9307;BME280;4691;47.612;7.610;2023-03-01T00:16:27;98985.53;;;-1.73;100.00
9307;BME280;4691;47.612;7.610;2023-03-01T00:18:54;98983.69;;;-1.70;100.00
9307;BME280;4691;47.612;7.610;2023-03-01T00:21:21;98976.91;;;-1.77;100.00
9307;BME280;4691;47.612;7.610;2023-03-01T00:23:47;98961.28;;;-1.82;100.00
9307;BME280;4691;47.612;7.610;2023-03-01T00:26:15;98956.03;;;-1.82;100.00
9307;BME280;4691;47.612;7.610;2023-03-01T00:28:41;98946.50;;;-1.84;100.00
9307;BME280;4691;47.612;7.610;2023-03-01T00:31:09;98945.56;;;-1.82;100.00
9307;BME280;4691;47.612;7.610;2023-03-01T00:33:35;98938.00;;;-1.94;100.00
9307;BME280;4691;47.612;7.610;2023-03-01T00:36:01;98932.84;;;-1.97;100.00
9307;BME280;4691;47.612;7.610;2023-03-01T00:38:26;98928.66;;;-2.04;100.00
9307;BME280;4691;47.612;7.610;2023-03-01T00:40:52;98929.59;;;-2.08;100.00
9307;BME280;4691;47.612;7.610;2023-03-01T00:43:18;98910.56;;;-2.15;100.00
9307;BME280;4691;47.612;7.610;2023-03-01T00:45:43;98908.16;;;-2.23;100.00
9307;BME280;4691;47.612;7.610;2023-03-01T00:48:08;98895.00;;;-2.21;100.00
9307;BME280;4691;47.612;7.610;2023-03-01T00:50:34;98897.75;;;-2.26;100.00
9307;BME280;4691;47.612;7.610;2023-03-01T00:52:59;98881.22;;;-2.29;100.00
9307;BME280;4691;47.612;7.610;2023-03-01T00:55:25;98864.78;;;-2.34;100.00
9307;BME280;4691;47.612;7.610;2023-03-01T00:57:51;98861.22;;;-2.32;100.00
9307;BME280;4691;47.612;7.610;2023-03-01T01:00:17;98850.78;;;-2.33;100.00
9307;BME280;4691;47.612;7.610;2023-03-01T01:02:42;98841.38;;;-2.42;100.00
9307;BME280;4691;47.612;7.610;2023-03-01T01:05:08;98829.00;;;-2.35;100.00
9307;BME280;4691;47.612;7.610;2023-03-01T01:07:34;98809.22;;;-2.47;100.00
9307;BME280;4691;47.612;7.610;2023-03-01T01:09:59;98789.84;;;-2.40;100.00
9307;BME280;4691;47.612;7.610;2023-03-01T01:12:24;98776.97;;;-2.49;100.00
9307;BME280;4691;47.612;7.610;2023-03-01T01:14:50;98766.63;;;-2.54;100.00
9307;BME280;4691;47.612;7.610;2023-03-01T01:17:15;98750.31;;;-2.65;100.00
9307;BME280;4691;47.612;7.610;2023-03-01T01:19:41;98722.47;;;-2.68;100.00
9307;BME280;4691;47.612;7.610;2023-03-01T01:22:06;98699.66;;;-2.63;100.00
9307;BME280;4691;47.612;7.610;2023-03-01T01:24:32;98691.94;;;-2.67;100.00
9307;BME280;4691;47.612;7.610;2023-03-01T01:26:57;98685.16;;;-2.76;100.00
9307;BME280;4691;47.612;7.610;2023-03-01T01:29:23;98673.13;;;-2.81;100.00
9307;BME280;4691;47.612;7.610;2023-03-01T01:31:48;98656.78;;;-2.91;100.00
9307;BME280;4691;47.612;7.610;2023-03-01T01:34:20;98674.28;;;-2.93;100.00
9307;BME280;4691;47.612;7.610;2023-03-01T01:36:51;98650.06;;;-3.01;100.00
9307;BME280;4691;47.612;7.610;2023-03-01T01:39:18;98606.97;;;-2.88;100.00
9307;BME280;4691;47.612;7.610;2023-03-01T01:41:46;98610.00;;;-3.03;100.00
9307;BME280;4691;47.612;7.610;2023-03-01T01:44:21;98498.47;;;-3.06;100.00
9307;BME280;4691;47.612;7.610;2023-03-01T01:49:38;98505.63;;;-3.13;100.00
9307;BME280;4691;47.612;7.610;2023-03-01T01:52:17;98523.03;;;-3.12;100.00
9307;BME280;4691;47.612;7.610;2023-03-01T01:54:57;98521.34;;;-3.13;100.00
9307;BME280;4691;47.612;7.610;2023-03-01T01:57:34;98507.34;;;-3.12;100.00
9307;BME280;4691;47.612;7.610;2023-03-01T02:00:10;98490.03;;;-3.16;100.00
9307;BME280;4691;47.612;7.610;2023-03-01T02:02:37;98486.75;;;-3.24;100.00
9307;BME280;4691;47.612;7.610;2023-03-01T02:07:59;98458.97;;;-3.28;100.00
9307;BME280;4691;47.612;7.610;2023-03-01T02:10:25;98441.56;;;-3.29;100.00
9307;BME280;4691;47.612;7.610;2023-03-01T02:12:52;98421.03;;;-3.12;100.00
9307;BME280;4691;47.612;7.610;2023-03-01T02:15:18;98419.53;;;-3.20;100.00
9307;BME280;4691;47.612;7.610;2023-03-01T02:17:44;98405.69;;;-3.24;100.00
9307;BME280;4691;47.612;7.610;2023-03-01T02:22:53;98385.91;;;-3.34;100.00
9307;BME280;4691;47.612;7.610;2023-03-01T02:30:46;98352.59;;;-3.26;100.00
9307;BME280;4691;47.612;7.610;2023-03-01T02:33:33;98346.63;;;-3.31;100.00
9307;BME280;4691;47.612;7.610;2023-03-01T02:36:03;98342.91;;;-3.24;100.00
9307;BME280;4691;47.612;7.610;2023-03-01T02:38:29;98343.06;;;-3.29;100.00
9307;BME280;4691;47.612;7.610;2023-03-01T02:40:56;98341.31;;;-3.28;100.00
9307;BME280;4691;47.612;7.610;2023-03-01T02:43:26;98343.31;;;-3.36;100.00
9307;BME280;4691;47.612;7.610;2023-03-01T02:45:56;98342.28;;;-3.32;100.00
9307;BME280;4691;47.612;7.610;2023-03-01T02:48:22;98339.78;;;-3.35;100.00
9307;BME280;4691;47.612;7.610;2023-03-01T02:53:19;98330.88;;;-3.30;100.00
9307;BME280;4691;47.612;7.610;2023-03-01T02:55:48;98343.13;;;-3.32;100.00
9307;BME280;4691;47.612;7.610;2023-03-01T02:58:15;98342.75;;;-3.47;100.00
9307;BME280;4691;47.612;7.610;2023-03-01T03:00:42;98343.59;;;-3.47;100.00
9307;BME280;4691;47.612;7.610;2023-03-01T03:03:21;98334.38;;;-3.59;100.00
9307;BME280;4691;47.612;7.610;2023-03-01T03:05:47;98326.75;;;-3.66;100.00
9307;BME280;4691;47.612;7.610;2023-03-01T03:08:14;98327.69;;;-3.69;100.00
9307;BME280;4691;47.612;7.610;2023-03-01T03:10:42;98309.50;;;-3.74;100.00
9307;BME280;4691;47.612;7.610;2023-03-01T03:13:12;98304.97;;;-3.67;100.00
9307;BME280;4691;47.612;7.610;2023-03-01T03:15:39;98297.78;;;-3.59;100.00
9307;BME280;4691;47.612;7.610;2023-03-01T03:19:32;98237.03;;;-3.67;100.00
9307;BME280;4691;47.612;7.610;2023-03-01T03:21:57;98227.31;;;-3.62;100.00
9307;BME280;4691;47.612;7.610;2023-03-01T03:24:24;98227.09;;;-3.56;100.00
9307;BME280;4691;47.612;7.610;2023-03-01T03:26:49;98237.19;;;-3.73;100.00
9307;BME280;4691;47.612;7.610;2023-03-01T03:29:15;98238.03;;;-3.71;100.00
9307;BME280;4691;47.612;7.610;2023-03-01T03:31:40;98238.94;;;-3.72;100.00
9307;BME280;4691;47.612;7.610;2023-03-01T03:34:05;98238.84;;;-3.69;100.00
9307;BME280;4691;47.612;7.610;2023-03-01T03:36:31;98239.94;;;-3.78;100.00
9307;BME280;4691;47.612;7.610;2023-03-01T03:38:56;98246.06;;;-3.77;100.00
9307;BME280;4691;47.612;7.610;2023-03-01T03:41:21;98253.31;;;-3.88;100.00
9307;BME280;4691;47.612;7.610;2023-03-01T03:43:47;98252.50;;;-3.90;100.00
9307;BME280;4691;47.612;7.610;2023-03-01T03:46:13;98251.03;;;-3.99;100.00
9307;BME280;4691;47.612;7.610;2023-03-01T03:48:43;98257.59;;;-3.86;100.00
9307;BME280;4691;47.612;7.610;2023-03-01T03:51:11;98255.13;;;-3.90;100.00
9307;BME280;4691;47.612;7.610;2023-03-01T03:53:37;98243.06;;;-3.95;100.00
9307;BME280;4691;47.612;7.610;2023-03-01T03:56:02;98238.09;;;-4.04;100.00
9307;BME280;4691;47.612;7.610;2023-03-01T03:58:28;98223.94;;;-3.95;100.00
9307;BME280;4691;47.612;7.610;2023-03-01T04:00:56;98224.81;;;-3.96;100.00
9307;BME280;4691;47.612;7.610;2023-03-01T04:03:23;98224.41;;;-4.12;100.00
9307;BME280;4691;47.612;7.610;2023-03-01T04:05:49;98221.91;;;-4.17;100.00
9307;BME280;4691;47.612;7.610;2023-03-01T04:08:23;98221.41;;;-3.98;100.00
9307;BME280;4691;47.612;7.610;2023-03-01T04:10:49;98219.53;;;-3.93;100.00
9307;BME280;4691;47.612;7.610;2023-03-01T04:13:19;98230.91;;;-3.96;100.00
9307;BME280;4691;47.612;7.610;2023-03-01T04:15:49;98231.69;;;-3.92;100.00
9307;BME280;4691;47.612;7.610;2023-03-01T04:18:15;98227.75;;;-4.07;100.00
9307;BME280;4691;47.612;7.610;2023-03-01T04:20:42;98239.09;;;-4.08;100.00
9307;BME280;4691;47.612;7.610;2023-03-01T04:23:10;98244.22;;;-4.05;100.00
9307;BME280;4691;47.612;7.610;2023-03-01T04:25:46;98242.59;;;-4.09;100.00
9307;BME280;4691;47.612;7.610;2023-03-01T04:28:14;98256.00;;;-4.21;100.00
9307;BME280;4691;47.612;7.610;2023-03-01T04:30:40;98266.47;;;-4.21;100.00
9307;BME280;4691;47.612;7.610;2023-03-01T04:33:07;98272.69;;;-4.27;100.00
9307;BME280;4691;47.612;7.610;2023-03-01T04:35:34;98270.59;;;-4.14;100.00
9307;BME280;4691;47.612;7.610;2023-03-01T04:37:59;98263.63;;;-4.13;100.00
9307;BME280;4691;47.612;7.610;2023-03-01T04:40:26;98261.06;;;-4.15;100.00
9307;BME280;4691;47.612;7.610;2023-03-01T04:42:52;98259.41;;;-4.19;100.00
9307;BME280;4691;47.612;7.610;2023-03-01T04:45:17;98258.78;;;-4.27;100.00
9307;BME280;4691;47.612;7.610;2023-03-01T04:47:45;98253.53;;;-4.26;100.00
9307;BME280;4691;47.612;7.610;2023-03-01T04:50:13;98256.94;;;-4.24;100.00
9307;BME280;4691;47.612;7.610;2023-03-01T04:52:39;98184.69;;;-4.23;100.00
9307;BME280;4691;47.612;7.610;2023-03-01T04:55:04;98179.88;;;-4.07;100.00
9307;BME280;4691;47.612;7.610;2023-03-01T04:57:30;98171.28;;;-4.11;100.00
9307;BME280;4691;47.612;7.610;2023-03-01T04:59:57;98178.34;;;-4.14;100.00
9307;BME280;4691;47.612;7.610;2023-03-01T05:02:22;98170.63;;;-4.19;100.00
9307;BME280;4691;47.612;7.610;2023-03-01T05:04:50;98179.13;;;-4.11;100.00
9307;BME280;4691;47.612;7.610;2023-03-01T05:07:15;98181.78;;;-4.12;100.00
9307;BME280;4691;47.612;7.610;2023-03-01T05:09:45;98183.84;;;-4.24;100.00
9307;BME280;4691;47.612;7.610;2023-03-01T05:12:13;98184.34;;;-4.11;100.00
9307;BME280;4691;47.612;7.610;2023-03-01T05:14:39;98191.78;;;-3.97;100.00
9307;BME280;4691;47.612;7.610;2023-03-01T05:17:08;98184.31;;;-3.81;100.00
9307;BME280;4691;47.612;7.610;2023-03-01T05:19:34;98186.84;;;-3.78;100.00
9307;BME280;4691;47.612;7.610;2023-03-01T05:21:59;98183.91;;;-3.67;100.00
9307;BME280;4691;47.612;7.610;2023-03-01T05:24:34;98184.19;;;-3.48;100.00
9307;BME280;4691;47.612;7.610;2023-03-01T05:27:01;98185.72;;;-3.41;100.00
9307;BME280;4691;47.612;7.610;2023-03-01T05:29:28;98179.84;;;-3.50;100.00
9307;BME280;4691;47.612;7.610;2023-03-01T05:31:58;98188.50;;;-3.47;100.00
9307;BME280;4691;47.612;7.610;2023-03-01T05:34:27;98195.38;;;-3.43;100.00
9307;BME280;4691;47.612;7.610;2023-03-01T05:36:53;98189.22;;;-3.42;100.00
9307;BME280;4691;47.612;7.610;2023-03-01T05:39:24;98184.66;;;-3.36;100.00
9307;BME280;4691;47.612;7.610;2023-03-01T05:41:56;98189.31;;;-3.45;100.00
9307;BME280;4691;47.612;7.610;2023-03-01T05:44:21;98193.03;;;-3.53;100.00
9307;BME280;4691;47.612;7.610;2023-03-01T05:46:47;98184.94;;;-3.45;100.00
9307;BME280;4691;47.612;7.610;2023-03-01T05:49:15;98184.00;;;-3.42;100.00
9307;BME280;4691;47.612;7.610;2023-03-01T05:51:42;98189.75;;;-3.31;100.00
9307;BME280;4691;47.612;7.610;2023-03-01T05:54:10;98181.91;;;-3.31;100.00
9307;BME280;4691;47.612;7.610;2023-03-01T05:56:36;98194.03;;;-3.29;100.00
9307;BME280;4691;47.612;7.610;2023-03-01T05:59:03;98192.88;;;-3.48;100.00
9307;BME280;4691;47.612;7.610;2023-03-01T06:01:30;98192.44;;;-3.34;100.00
9307;BME280;4691;47.612;7.610;2023-03-01T06:03:56;98202.72;;;-3.28;100.00
9307;BME280;4691;47.612;7.610;2023-03-01T06:06:22;98211.56;;;-3.32;100.00
9307;BME280;4691;47.612;7.610;2023-03-01T06:08:47;98224.03;;;-3.40;100.00
9307;BME280;4691;47.612;7.610;2023-03-01T06:11:12;98235.22;;;-3.37;100.00
9307;BME280;4691;47.612;7.610;2023-03-01T06:13:38;98238.28;;;-3.22;100.00
9307;BME280;4691;47.612;7.610;2023-03-01T06:16:05;98247.50;;;-3.39;100.00
9307;BME280;4691;47.612;7.610;2023-03-01T06:18:31;98255.88;;;-3.28;100.00
9307;BME280;4691;47.612;7.610;2023-03-01T06:20:56;98265.09;;;-3.16;100.00
9307;BME280;4691;47.612;7.610;2023-03-01T06:23:23;98265.38;;;-3.25;100.00
9307;BME280;4691;47.612;7.610;2023-03-01T06:25:48;98267.06;;;-3.24;100.00
9307;BME280;4691;47.612;7.610;2023-03-01T06:28:14;98283.44;;;-3.17;100.00
9307;BME280;4691;47.612;7.610;2023-03-01T06:30:39;98291.06;;;-3.10;100.00
9307;BME280;4691;47.612;7.610;2023-03-01T06:33:05;98304.75;;;-3.01;100.00
9307;BME280;4691;47.612;7.610;2023-03-01T06:35:30;98317.06;;;-3.05;100.00
9307;BME280;4691;47.612;7.610;2023-03-01T06:37:56;98330.00;;;-3.00;100.00
9307;BME280;4691;47.612;7.610;2023-03-01T06:40:22;98343.41;;;-3.11;100.00
9307;BME280;4691;47.612;7.610;2023-03-01T06:42:50;98340.13;;;-3.18;100.00
9307;BME280;4691;47.612;7.610;2023-03-01T06:45:16;98321.53;;;-3.09;100.00
9307;BME280;4691;47.612;7.610;2023-03-01T06:47:41;98325.81;;;-3.06;100.00
9307;BME280;4691;47.612;7.610;2023-03-01T06:50:07;98335.97;;;-2.95;100.00
9307;BME280;4691;47.612;7.610;2023-03-01T06:52:33;98341.75;;;-2.86;100.00
9307;BME280;4691;47.612;7.610;2023-03-01T06:54:59;98351.94;;;-2.76;100.00
9307;BME280;4691;47.612;7.610;2023-03-01T06:57:24;98360.03;;;-2.84;100.00
9307;BME280;4691;47.612;7.610;2023-03-01T06:59:50;98364.91;;;-3.01;100.00
9307;BME280;4691;47.612;7.610;2023-03-01T07:02:15;98367.25;;;-2.92;100.00
9307;BME280;4691;47.612;7.610;2023-03-01T07:04:41;98374.28;;;-2.94;100.00
9307;BME280;4691;47.612;7.610;2023-03-01T07:07:06;98366.97;;;-2.83;100.00
9307;BME280;4691;47.612;7.610;2023-03-01T07:09:32;98366.53;;;-2.69;100.00
9307;BME280;4691;47.612;7.610;2023-03-01T07:11:58;98364.91;;;-2.73;100.00
9307;BME280;4691;47.612;7.610;2023-03-01T07:14:23;98383.47;;;-2.81;100.00
9307;BME280;4691;47.612;7.610;2023-03-01T07:16:53;98400.56;;;-2.69;100.00
9307;BME280;4691;47.612;7.610;2023-03-01T07:19:25;98405.94;;;-2.74;100.00
9307;BME280;4691;47.612;7.610;2023-03-01T07:21:51;98413.69;;;-2.71;100.00
9307;BME280;4691;47.612;7.610;2023-03-01T07:24:16;98423.78;;;-2.58;100.00
9307;BME280;4691;47.612;7.610;2023-03-01T07:26:41;98427.28;;;-2.59;100.00
9307;BME280;4691;47.612;7.610;2023-03-01T07:29:09;98428.78;;;-2.51;100.00
9307;BME280;4691;47.612;7.610;2023-03-01T07:31:35;98434.06;;;-2.52;100.00
9307;BME280;4691;47.612;7.610;2023-03-01T07:34:02;98435.09;;;-2.58;100.00
9307;BME280;4691;47.612;7.610;2023-03-01T07:36:28;98427.22;;;-2.56;100.00
9307;BME280;4691;47.612;7.610;2023-03-01T07:38:56;98421.69;;;-2.47;100.00
9307;BME280;4691;47.612;7.610;2023-03-01T07:41:22;98433.81;;;-2.45;100.00
9307;BME280;4691;47.612;7.610;2023-03-01T07:43:48;98437.53;;;-2.52;100.00
9307;BME280;4691;47.612;7.610;2023-03-01T07:46:13;98424.22;;;-2.17;100.00
9307;BME280;4691;47.612;7.610;2023-03-01T07:48:39;98424.34;;;-2.21;100.00
9307;BME280;4691;47.612;7.610;2023-03-01T07:51:05;98426.09;;;-2.49;100.00
9307;BME280;4691;47.612;7.610;2023-03-01T07:53:32;98421.50;;;-2.41;100.00
9307;BME280;4691;47.612;7.610;2023-03-01T07:56:11;98410.13;;;-2.42;100.00
9307;BME280;4691;47.612;7.610;2023-03-01T07:58:38;98413.00;;;-2.49;100.00
9307;BME280;4691;47.612;7.610;2023-03-01T08:01:05;98396.06;;;-2.37;100.00
9307;BME280;4691;47.612;7.610;2023-03-01T08:03:32;98393.09;;;-2.27;100.00
9307;BME280;4691;47.612;7.610;2023-03-01T08:05:59;98397.22;;;-2.20;100.00
9307;BME280;4691;47.612;7.610;2023-03-01T08:08:25;98399.97;;;-2.24;100.00
9307;BME280;4691;47.612;7.610;2023-03-01T08:10:50;98413.22;;;-2.29;100.00
9307;BME280;4691;47.612;7.610;2023-03-01T08:13:16;98429.19;;;-2.36;100.00
9307;BME280;4691;47.612;7.610;2023-03-01T08:15:43;98431.06;;;-2.13;100.00
9307;BME280;4691;47.612;7.610;2023-03-01T08:18:15;98445.56;;;-2.03;100.00
9307;BME280;4691;47.612;7.610;2023-03-01T08:20:43;98453.25;;;-1.97;100.00
9307;BME280;4691;47.612;7.610;2023-03-01T08:23:09;98470.81;;;-2.27;100.00
9307;BME280;4691;47.612;7.610;2023-03-01T08:25:34;98473.63;;;-2.05;100.00
9307;BME280;4691;47.612;7.610;2023-03-01T08:27:59;98478.13;;;-1.84;100.00
9307;BME280;4691;47.612;7.610;2023-03-01T08:30:25;98508.53;;;-2.33;100.00
9307;BME280;4691;47.612;7.610;2023-03-01T08:32:51;98511.72;;;-1.95;100.00
9307;BME280;4691;47.612;7.610;2023-03-01T08:35:17;98570.63;;;-2.08;100.00
9307;BME280;4691;47.612;7.610;2023-03-01T08:37:42;98578.06;;;-2.23;100.00
9307;BME280;4691;47.612;7.610;2023-03-01T08:40:08;98586.09;;;-1.99;100.00
9307;BME280;4691;47.612;7.610;2023-03-01T08:42:35;98587.97;;;-2.04;100.00
9307;BME280;4691;47.612;7.610;2023-03-01T08:45:01;98599.81;;;-1.91;100.00
9307;BME280;4691;47.612;7.610;2023-03-01T08:47:27;98614.44;;;-1.84;100.00
9307;BME280;4691;47.612;7.610;2023-03-01T08:49:52;98620.72;;;-1.61;100.00
9307;BME280;4691;47.612;7.610;2023-03-01T08:52:18;98608.94;;;-1.48;100.00
9307;BME280;4691;47.612;7.610;2023-03-01T08:54:44;98637.34;;;-1.90;100.00
9307;BME280;4691;47.612;7.610;2023-03-01T08:57:09;98639.00;;;-1.88;100.00
9307;BME280;4691;47.612;7.610;2023-03-01T08:59:35;98638.13;;;-1.87;100.00
9307;BME280;4691;47.612;7.610;2023-03-01T09:02:03;98639.00;;;-1.88;100.00
9307;BME280;4691;47.612;7.610;2023-03-01T09:04:29;98634.88;;;-1.95;100.00
9307;BME280;4691;47.612;7.610;2023-03-01T09:06:54;98635.38;;;-1.54;100.00
9307;BME280;4691;47.612;7.610;2023-03-01T09:09:20;98628.09;;;-1.46;100.00
9307;BME280;4691;47.612;7.610;2023-03-01T09:11:45;98631.22;;;-1.35;100.00
9307;BME280;4691;47.612;7.610;2023-03-01T09:14:12;98636.44;;;-1.33;100.00
9307;BME280;4691;47.612;7.610;2023-03-01T09:16:38;98650.41;;;-1.33;100.00
9307;BME280;4691;47.612;7.610;2023-03-01T09:19:04;98655.50;;;-1.01;100.00
9307;BME280;4691;47.612;7.610;2023-03-01T09:21:30;98668.75;;;-1.06;100.00
9307;BME280;4691;47.612;7.610;2023-03-01T09:23:57;98691.28;;;-1.25;100.00
9307;BME280;4691;47.612;7.610;2023-03-01T09:26:23;98697.13;;;-1.17;100.00
9307;BME280;4691;47.612;7.610;2023-03-01T09:28:53;98700.84;;;-1.24;100.00
9307;BME280;4691;47.612;7.610;2023-03-01T09:31:20;98709.16;;;-1.38;100.00
9307;BME280;4691;47.612;7.610;2023-03-01T09:33:47;98701.88;;;-1.02;100.00
9307;BME280;4691;47.612;7.610;2023-03-01T09:36:16;98710.97;;;-1.12;100.00
9307;BME280;4691;47.612;7.610;2023-03-01T09:38:42;98719.53;;;-1.07;100.00
9307;BME280;4691;47.612;7.610;2023-03-01T09:41:26;98719.34;;;-1.01;100.00
9307;BME280;4691;47.612;7.610;2023-03-01T09:44:01;98724.53;;;-0.99;100.00
9307;BME280;4691;47.612;7.610;2023-03-01T09:46:33;98730.50;;;-0.94;100.00
9307;BME280;4691;47.612;7.610;2023-03-01T09:49:05;98739.38;;;-1.26;100.00
9307;BME280;4691;47.612;7.610;2023-03-01T09:51:35;98748.75;;;-0.90;100.00
9307;BME280;4691;47.612;7.610;2023-03-01T09:54:05;98741.63;;;-0.88;100.00
9307;BME280;4691;47.612;7.610;2023-03-01T09:56:42;98754.31;;;-0.47;100.00
9307;BME280;4691;47.612;7.610;2023-03-01T09:59:33;98760.63;;;-0.53;100.00
9307;BME280;4691;47.612;7.610;2023-03-01T10:02:34;98771.84;;;-0.48;100.00
9307;BME280;4691;47.612;7.610;2023-03-01T10:07:54;98767.78;;;-0.56;100.00
9307;BME280;4691;47.612;7.610;2023-03-01T10:10:35;98777.81;;;-0.69;100.00
9307;BME280;4691;47.612;7.610;2023-03-01T10:15:47;98781.09;;;-0.36;100.00
9307;BME280;4691;47.612;7.610;2023-03-01T10:18:18;98793.75;;;-0.75;100.00
9307;BME280;4691;47.612;7.610;2023-03-01T10:21:16;98789.22;;;-0.43;100.00
9307;BME280;4691;47.612;7.610;2023-03-01T10:23:42;98772.16;;;-0.07;100.00
9307;BME280;4691;47.612;7.610;2023-03-01T10:29:36;98791.38;;;-0.30;100.00
9307;BME280;4691;47.612;7.610;2023-03-01T10:32:03;98784.50;;;-0.09;100.00
9307;BME280;4691;47.612;7.610;2023-03-01T10:34:34;98778.59;;;0.10;100.00
9307;BME280;4691;47.612;7.610;2023-03-01T10:37:15;98782.81;;;-0.10;100.00
9307;BME280;4691;47.612;7.610;2023-03-01T10:42:31;98790.50;;;0.20;100.00
9307;BME280;4691;47.612;7.610;2023-03-01T10:44:57;98784.34;;;0.45;100.00
9307;BME280;4691;47.612;7.610;2023-03-01T10:47:26;98783.25;;;0.50;100.00
9307;BME280;4691;47.612;7.610;2023-03-01T10:49:54;98795.75;;;0.43;100.00
9307;BME280;4691;47.612;7.610;2023-03-01T10:52:23;98806.56;;;0.83;100.00
9307;BME280;4691;47.612;7.610;2023-03-01T10:54:58;98821.44;;;0.84;100.00
9307;BME280;4691;47.612;7.610;2023-03-01T10:57:31;98828.81;;;0.74;100.00
9307;BME280;4691;47.612;7.610;2023-03-01T11:00:18;98827.63;;;1.05;100.00
9307;BME280;4691;47.612;7.610;2023-03-01T11:03:11;98837.41;;;0.79;100.00
9307;BME280;4691;47.612;7.610;2023-03-01T11:05:50;98831.78;;;0.89;100.00
9307;BME280;4691;47.612;7.610;2023-03-01T11:08:29;98836.59;;;1.45;100.00
9307;BME280;4691;47.612;7.610;2023-03-01T11:13:57;98864.69;;;0.77;100.00
9307;BME280;4691;47.612;7.610;2023-03-01T11:16:31;98843.75;;;1.41;100.00
9307;BME280;4691;47.612;7.610;2023-03-01T11:19:06;98853.75;;;1.55;100.00
9307;BME280;4691;47.612;7.610;2023-03-01T11:24:12;98865.00;;;1.81;100.00
9307;BME280;4691;47.612;7.610;2023-03-01T11:26:41;98865.88;;;1.59;100.00
9307;BME280;4691;47.612;7.610;2023-03-01T11:29:15;98870.97;;;2.06;100.00
9307;BME280;4691;47.612;7.610;2023-03-01T11:31:44;98879.34;;;1.73;100.00
9307;BME280;4691;47.612;7.610;2023-03-01T11:34:18;98871.63;;;1.91;100.00
9307;BME280;4691;47.612;7.610;2023-03-01T11:40:29;98875.97;;;2.12;100.00
9307;BME280;4691;47.612;7.610;2023-03-01T11:48:33;98875.78;;;2.37;100.00
9307;BME280;4691;47.612;7.610;2023-03-01T11:51:05;98879.66;;;2.49;100.00
9307;BME280;4691;47.612;7.610;2023-03-01T11:53:48;98884.38;;;2.61;100.00
9307;BME280;4691;47.612;7.610;2023-03-01T11:59:06;98885.72;;;2.51;100.00
9307;BME280;4691;47.612;7.610;2023-03-01T12:01:51;98878.56;;;2.74;100.00
9307;BME280;4691;47.612;7.610;2023-03-01T12:05:08;98883.09;;;2.31;100.00
9307;BME280;4691;47.612;7.610;2023-03-01T12:07:59;98882.44;;;2.86;100.00
9307;BME280;4691;47.612;7.610;2023-03-01T12:10:27;98879.72;;;2.87;100.00
9307;BME280;4691;47.612;7.610;2023-03-01T12:21:49;98878.59;;;2.53;100.00
9307;BME280;4691;47.612;7.610;2023-03-01T12:27:23;98865.00;;;3.00;100.00
9307;BME280;4691;47.612;7.610;2023-03-01T12:30:15;98871.53;;;2.93;100.00
9307;BME280;4691;47.612;7.610;2023-03-01T12:33:00;98874.69;;;2.62;100.00
9307;BME280;4691;47.612;7.610;2023-03-01T12:35:43;98865.00;;;3.00;100.00
9307;BME280;4691;47.612;7.610;2023-03-01T12:38:22;98863.59;;;2.93;100.00
9307;BME280;4691;47.612;7.610;2023-03-01T12:41:11;98861.00;;;3.30;100.00
9307;BME280;4691;47.612;7.610;2023-03-01T12:43:48;98868.13;;;3.46;100.00
9307;BME280;4691;47.612;7.610;2023-03-01T12:48:54;98869.16;;;3.25;100.00
9307;BME280;4691;47.612;7.610;2023-03-01T12:51:24;98864.56;;;3.47;100.00
9307;BME280;4691;47.612;7.610;2023-03-01T12:53:53;98863.44;;;3.34;100.00
9307;BME280;4691;47.612;7.610;2023-03-01T12:56:28;98862.09;;;3.62;100.00
9307;BME280;4691;47.612;7.610;2023-03-01T13:09:40;98869.28;;;3.41;100.00
9307;BME280;4691;47.612;7.610;2023-03-01T13:12:43;98874.75;;;3.19;100.00
9307;BME280;4691;47.612;7.610;2023-03-01T13:17:47;98872.88;;;3.93;100.00
9307;BME280;4691;47.612;7.610;2023-03-01T13:20:15;98872.31;;;3.87;100.00
9307;BME280;4691;47.612;7.610;2023-03-01T13:22:42;98873.81;;;3.75;100.00
9307;BME280;4691;47.612;7.610;2023-03-01T13:25:19;98876.19;;;3.80;100.00
9307;BME280;4691;47.612;7.610;2023-03-01T13:27:46;98870.53;;;4.05;100.00
9307;BME280;4691;47.612;7.610;2023-03-01T13:35:54;98872.41;;;4.03;100.00
9307;BME280;4691;47.612;7.610;2023-03-01T13:38:55;98871.91;;;3.77;100.00
9307;BME280;4691;47.612;7.610;2023-03-01T13:46:48;98875.38;;;4.14;100.00
9307;BME280;4691;47.612;7.610;2023-03-01T13:49:19;98886.75;;;3.99;100.00
9307;BME280;4691;47.612;7.610;2023-03-01T13:51:47;98880.94;;;3.73;100.00
9307;BME280;4691;47.612;7.610;2023-03-01T13:54:14;98876.91;;;3.83;100.00
9307;BME280;4691;47.612;7.610;2023-03-01T13:56:40;98869.84;;;4.19;100.00
9307;BME280;4691;47.612;7.610;2023-03-01T13:59:16;98878.41;;;4.24;100.00
9307;BME280;4691;47.612;7.610;2023-03-01T14:01:42;98873.41;;;4.35;100.00
9307;BME280;4691;47.612;7.610;2023-03-01T14:04:28;98871.56;;;4.20;100.00
9307;BME280;4691;47.612;7.610;2023-03-01T14:07:20;98873.72;;;4.29;100.00
9307;BME280;4691;47.612;7.610;2023-03-01T14:09:47;98872.56;;;4.00;100.00
9307;BME280;4691;47.612;7.610;2023-03-01T14:12:48;98880.97;;;3.90;100.00
9307;BME280;4691;47.612;7.610;2023-03-01T14:15:27;98871.50;;;4.04;100.00
9307;BME280;4691;47.612;7.610;2023-03-01T14:18:14;98880.81;;;3.93;100.00
9307;BME280;4691;47.612;7.610;2023-03-01T14:20:44;98877.41;;;4.09;100.00
9307;BME280;4691;47.612;7.610;2023-03-01T14:23:19;98871.41;;;4.05;100.00
9307;BME280;4691;47.612;7.610;2023-03-01T14:25:51;98872.03;;;3.93;100.00
9307;BME280;4691;47.612;7.610;2023-03-01T14:28:24;98872.53;;;3.82;100.00
9307;BME280;4691;47.612;7.610;2023-03-01T14:30:55;98871.78;;;4.15;100.00
9307;BME280;4691;47.612;7.610;2023-03-01T14:33:25;98873.81;;;4.27;100.00
9307;BME280;4691;47.612;7.610;2023-03-01T14:38:22;98879.19;;;4.26;100.00
9307;BME280;4691;47.612;7.610;2023-03-01T14:40:58;98886.88;;;3.96;100.00
9307;BME280;4691;47.612;7.610;2023-03-01T14:43:29;98888.22;;;3.51;100.00
9307;BME280;4691;47.612;7.610;2023-03-01T14:45:55;98891.03;;;4.01;100.00
9307;BME280;4691;47.612;7.610;2023-03-01T14:48:21;98885.66;;;3.85;100.00
9307;BME280;4691;47.612;7.610;2023-03-01T14:50:46;98885.19;;;4.29;100.00
9307;BME280;4691;47.612;7.610;2023-03-01T14:53:17;98881.34;;;3.83;100.00